Bloomfield Township, MI (48301)

5:49 PM EDT on September 01, 2015 (GMT -0400)
Fritz -- Metamora Green | | Change Station
CLOSE
Current Station
Personal Weather Station
Location: Beverly Hills, MI
Elevation: 709 ft
Nearby Weather Stations

Elev 709 ft 42.52 °N, 83.27 °W | Updated 4 seconds ago

Partly Cloudy
Partly Cloudy
87.3 °F
Feels Like 91 °F
N
1.0
Wind Variable Wind from WNW
Gusts 5.0 mph

Today
High -- | Low -- °F
--% Chance of Precip.
Yesterday
High -- | Low -- °F
Precip. -- in
6:57 AM 8:07 PM
Waning Gibbous, 86% visible
Pressure 30.04 in
Visibility 10.0 miles
Clouds Scattered Clouds 7000 ft
Heat Index 91 °F
Dew Point 68 °F
Humidity 53%
Rainfall 0.01 in
Snow Depth Not available.
UV 2 out of 12
Pollen 10.60 out of 12
Air Quality Not available.
Flu Activity Not available.
METAR KVLL 012135Z AUTO 24005KT 10SM SCT070 32/18 A3004 RMK AO2 T03160181
Pressure 30.04 in
Visibility 10.0 miles
Clouds Scattered Clouds 7000 ft
Heat Index 91 °F
Dew Point 68 °F
Humidity 53%
Rainfall 0.01 in
Snow Depth Not available.
UV 2 out of 12
Pollen 10.60 out of 12
Air Quality Not available.
Flu Activity Not available.
METAR KVLL 012135Z AUTO 24005KT 10SM SCT070 32/18 A3004 RMK AO2 T03160181

10-Day Weather Forecast

×

Almanac

Astronomy

Sep. 01, 2015 Rise Set
Actual Time
Civil Twilight
Nautical Twilight
Astronomical Twilight
Moon
Length of Visible Light
Length of Day
Tomorrow will be .
, % of the Moon is Illuminated

Today's Extremes

State Highs State Lows

Community

WunderPhotos

Upload Photos

1,851,628 photos uploaded!

WunderBlogs® & News

Nearby

Air Quality

  Air Quality AQ Index Pollutant
Not available.

Snow Depth

Station Depth Elevation

Earthquake Activity

City Distance Mag. Time & Date
Minimum magnitude displayed is 2.5.

Coastal Water Temperatures

Place Temperature

Stations

Nearby Weather Stations

Station Location Temp. Windchill Dew Point Humidity Wind Precip. Elev Updated Type